Durian, Arkansas
Current Conditions -  °F | °C
As of 10:53 PM on Friday 19 Dec 2014 (Local Time) from KHOT Reporting Station
Overcast Overcast  
Wind Chill: 38°   Ceiling: 4700
Heat Index: 41°   Visibility: 8mi
Dew Point: 38°   Wind: 5mph
Humidity: 89%   Direction: 80°E
Pressure: 30.23"   Gusts: NA
Location:  34.3189°N, 92.8629°W
Report Text: KHOT 200453Z AUTO 08004KT 8SM SCT009 OVC047 05/03 A3023 RMK AO2 SLP237 T00500033
Loading
Personal Weather Stations






























Interactive Weather Map New forecast layout! Learn more

10-Day Weather Forecast

Advertisements
Track Severe Weather on mobile